createdAt,value
2017-04-02T00:00:24.405Z,247.50
2017-04-02T00:01:24.942Z,247.50
2017-04-02T00:02:25.464Z,247.50
2017-04-02T00:03:25.994Z,315.00
2017-04-02T00:04:26.522Z,292.50
2017-04-02T00:05:27.057Z,180.00
2017-04-02T00:06:27.595Z,180.00
2017-04-02T00:07:28.118Z,157.50
2017-04-02T00:08:28.648Z,112.50
2017-04-02T00:09:29.194Z,112.50
2017-04-02T00:10:29.717Z,67.50
2017-04-02T00:11:30.237Z,67.50
2017-04-02T00:12:30.771Z,67.50
2017-04-02T00:13:31.290Z,90.00
2017-04-02T00:14:31.975Z,90.00
2017-04-02T00:15:32.354Z,90.00
2017-04-02T00:16:32.907Z,45.00
2017-04-02T00:17:33.414Z,67.50
2017-04-02T00:18:33.953Z,112.50
2017-04-02T00:19:34.474Z,135.00
2017-04-02T00:20:35.004Z,135.00
2017-04-02T00:21:35.539Z,135.00
2017-04-02T00:22:36.211Z,135.00
2017-04-02T00:23:36.593Z,112.50
2017-04-02T00:24:37.122Z,112.50
2017-04-02T00:25:37.657Z,90.00
2017-04-02T00:26:38.188Z,90.00
2017-04-02T00:27:38.719Z,45.00
2017-04-02T00:28:39.246Z,45.00
2017-04-02T00:29:39.777Z,90.00
2017-04-02T00:30:40.455Z,90.00
2017-04-02T00:31:40.839Z,112.50
2017-04-02T00:32:41.363Z,135.00
2017-04-02T00:33:41.892Z,135.00
2017-04-02T00:34:42.421Z,157.50
2017-04-02T00:35:42.959Z,90.00
2017-04-02T00:36:43.485Z,45.00
2017-04-02T00:37:44.028Z,135.00
2017-04-02T00:38:44.553Z,67.50
2017-04-02T00:39:45.090Z,67.50
2017-04-02T00:40:45.777Z,202.50
2017-04-02T00:41:46.152Z,292.50
2017-04-02T00:42:46.683Z,337.50
2017-04-02T00:43:47.211Z,45.00
2017-04-02T00:44:47.744Z,22.50
2017-04-02T00:45:48.276Z,22.50
2017-04-02T00:46:48.805Z,22.50
2017-04-02T00:47:49.334Z,22.50
2017-04-02T00:48:49.866Z,22.50
2017-04-02T00:49:50.402Z,22.50
2017-04-02T00:50:50.925Z,22.50
2017-04-02T00:51:51.457Z,22.50
2017-04-02T00:52:52.135Z,0.00
2017-04-02T00:53:52.667Z,0.00
2017-04-02T00:54:53.197Z,0.00
2017-04-02T00:55:53.576Z,0.00
2017-04-02T00:56:54.260Z,22.50
2017-04-02T00:57:54.636Z,45.00
2017-04-02T00:58:55.165Z,45.00
2017-04-02T00:59:55.692Z,22.50
2017-04-02T01:00:56.225Z,22.50
2017-04-02T01:01:56.914Z,22.50
2017-04-02T01:02:57.286Z,22.50
2017-04-02T01:03:57.832Z,22.50
2017-04-02T01:04:58.345Z,22.50
2017-04-02T01:05:58.874Z,22.50
2017-04-02T01:06:59.412Z,22.50
2017-04-02T01:07:59.939Z,270.00
2017-04-02T01:09:00.467Z,315.00
2017-04-02T01:10:00.997Z,292.50
2017-04-02T01:11:01.677Z,225.00
2017-04-02T01:12:02.202Z,180.00
2017-04-02T01:13:02.588Z,180.00
2017-04-02T01:14:03.121Z,157.50
2017-04-02T01:15:03.659Z,67.50
2017-04-02T01:16:04.184Z,67.50
2017-04-02T01:17:04.862Z,45.00
2017-04-02T01:18:05.244Z,22.50
2017-04-02T01:19:05.780Z,112.50
2017-04-02T01:20:06.316Z,157.50
2017-04-02T01:21:06.851Z,180.00
2017-04-02T01:22:07.381Z,180.00
2017-04-02T01:23:08.059Z,180.00
2017-04-02T01:24:08.440Z,135.00
2017-04-02T01:25:08.980Z,90.00
2017-04-02T01:26:09.494Z,67.50
2017-04-02T01:27:10.020Z,45.00
2017-04-02T01:28:10.553Z,45.00
2017-04-02T01:29:11.089Z,45.00
2017-04-02T01:30:11.604Z,0.00
2017-04-02T01:31:12.141Z,22.50
2017-04-02T01:32:12.663Z,22.50
2017-04-02T01:33:13.186Z,22.50
2017-04-02T01:34:13.716Z,22.50
2017-04-02T01:35:14.394Z,45.00
2017-04-02T01:36:14.918Z,67.50
2017-04-02T01:37:15.452Z,67.50
2017-04-02T01:38:15.834Z,45.00
2017-04-02T01:39:16.510Z,22.50
2017-04-02T01:40:16.892Z,45.00
2017-04-02T01:41:17.428Z,67.50
2017-04-02T01:42:17.951Z,337.50
2017-04-02T01:43:18.476Z,337.50
2017-04-02T01:44:19.009Z,292.50
2017-04-02T01:45:19.685Z,135.00
2017-04-02T01:46:20.063Z,135.00
2017-04-02T01:47:20.603Z,180.00
2017-04-02T01:48:21.119Z,202.50
2017-04-02T01:49:21.799Z,225.00
2017-04-02T01:50:22.176Z,337.50
2017-04-02T01:51:22.709Z,337.50
2017-04-02T01:52:23.234Z,270.00
2017-04-02T01:53:23.761Z,202.50
2017-04-02T01:54:24.299Z,202.50
2017-04-02T01:55:24.813Z,135.00
2017-04-02T01:56:25.346Z,270.00
2017-04-02T01:57:25.909Z,247.50
2017-04-02T01:58:26.408Z,337.50
2017-04-02T01:59:26.944Z,337.50
2017-04-02T02:00:27.479Z,45.00
2017-04-02T02:01:28.161Z,22.50
2017-04-02T02:02:28.542Z,45.00
2017-04-02T02:03:29.219Z,67.50
2017-04-02T02:04:29.606Z,67.50
2017-04-02T02:05:30.288Z,45.00
2017-04-02T02:06:30.661Z,45.00
2017-04-02T02:07:31.197Z,22.50
2017-04-02T02:08:31.717Z,22.50
2017-04-02T02:09:32.247Z,22.50
2017-04-02T02:10:32.777Z,22.50
2017-04-02T02:11:33.305Z,22.50
2017-04-02T02:12:33.837Z,22.50
2017-04-02T02:13:34.365Z,22.50
2017-04-02T02:14:34.894Z,292.50
2017-04-02T02:15:35.441Z,337.50
2017-04-02T02:16:35.955Z,337.50
2017-04-02T02:17:36.483Z,337.50
2017-04-02T02:18:37.011Z,315.00
2017-04-02T02:19:37.544Z,225.00
2017-04-02T02:20:38.075Z,225.00
2017-04-02T02:21:38.600Z,247.50
2017-04-02T02:22:39.129Z,292.50
2017-04-02T02:23:39.664Z,337.50
2017-04-02T02:24:40.195Z,337.50
2017-04-02T02:25:40.723Z,315.00
2017-04-02T02:26:41.248Z,337.50
2017-04-02T02:27:41.778Z,315.00
2017-04-02T02:28:42.308Z,315.00
2017-04-02T02:29:42.842Z,292.50
2017-04-02T02:30:43.364Z,180.00
2017-04-02T02:31:44.042Z,202.50
2017-04-02T02:32:44.422Z,112.50
2017-04-02T02:33:44.949Z,135.00
2017-04-02T02:34:45.478Z,135.00
2017-04-02T02:35:46.003Z,135.00
2017-04-02T02:36:46.533Z,157.50
2017-04-02T02:37:47.063Z,157.50
2017-04-02T02:38:47.592Z,180.00
2017-04-02T02:39:48.123Z,135.00
2017-04-02T02:40:48.664Z,202.50
2017-04-02T02:41:49.195Z,90.00
2017-04-02T02:42:49.724Z,112.50
2017-04-02T02:43:50.410Z,45.00
2017-04-02T02:44:50.931Z,45.00
2017-04-02T02:45:51.318Z,45.00
2017-04-02T02:46:51.844Z,22.50
2017-04-02T02:47:52.370Z,22.50
2017-04-02T02:48:53.047Z,45.00
2017-04-02T02:49:53.430Z,90.00
2017-04-02T02:50:53.961Z,67.50
2017-04-02T02:51:54.642Z,45.00
2017-04-02T02:52:55.018Z,22.50
2017-04-02T02:53:55.697Z,22.50
2017-04-02T02:54:56.076Z,0.00
2017-04-02T02:55:56.606Z,0.00
2017-04-02T02:56:57.137Z,0.00
2017-04-02T02:57:57.668Z,0.00
2017-04-02T02:58:58.204Z,180.00
2017-04-02T02:59:58.874Z,337.50
2017-04-02T03:00:59.256Z,337.50
2017-04-02T03:01:59.787Z,180.00
2017-04-02T03:03:00.315Z,67.50
2017-04-02T03:04:00.996Z,90.00
2017-04-02T03:05:01.374Z,135.00
2017-04-02T03:06:01.904Z,112.50
2017-04-02T03:07:02.436Z,135.00
2017-04-02T03:08:02.965Z,22.50
2017-04-02T03:09:03.492Z,22.50
2017-04-02T03:10:04.022Z,22.50
2017-04-02T03:11:04.554Z,22.50
2017-04-02T03:12:05.076Z,22.50
2017-04-02T03:13:05.607Z,90.00
2017-04-02T03:14:06.137Z,67.50
2017-04-02T03:15:06.672Z,45.00
2017-04-02T03:16:07.212Z,45.00
2017-04-02T03:17:07.744Z,22.50
2017-04-02T03:18:08.411Z,45.00
2017-04-02T03:19:08.934Z,45.00
2017-04-02T03:20:09.318Z,45.00
2017-04-02T03:21:09.853Z,67.50
2017-04-02T03:22:10.396Z,90.00
2017-04-02T03:23:11.064Z,90.00
2017-04-02T03:24:11.461Z,67.50
2017-04-02T03:25:11.984Z,45.00
2017-04-02T03:26:12.503Z,45.00
2017-04-02T03:27:13.027Z,90.00
2017-04-02T03:28:13.556Z,112.50
2017-04-02T03:29:14.091Z,135.00
2017-04-02T03:30:14.768Z,135.00
2017-04-02T03:31:15.156Z,157.50
2017-04-02T03:32:15.674Z,157.50
2017-04-02T03:33:16.206Z,157.50
2017-04-02T03:34:16.732Z,157.50
2017-04-02T03:35:17.264Z,112.50
2017-04-02T03:36:17.792Z,112.50
2017-04-02T03:37:18.331Z,112.50
2017-04-02T03:38:18.862Z,112.50
2017-04-02T03:39:19.379Z,67.50
2017-04-02T03:40:19.910Z,90.00
2017-04-02T03:41:20.437Z,90.00
2017-04-02T03:42:20.965Z,90.00
2017-04-02T03:43:21.494Z,90.00
2017-04-02T03:44:22.027Z,67.50
2017-04-02T03:45:22.557Z,45.00
2017-04-02T03:46:23.078Z,22.50
2017-04-02T03:47:23.612Z,22.50
2017-04-02T03:48:24.136Z,22.50
2017-04-02T03:49:24.670Z,22.50
2017-04-02T03:50:25.208Z,22.50
2017-04-02T03:51:25.726Z,22.50
2017-04-02T03:52:26.250Z,22.50
2017-04-02T03:53:26.782Z,67.50
2017-04-02T03:54:27.311Z,90.00
2017-04-02T03:55:27.847Z,90.00
2017-04-02T03:56:28.522Z,90.00
2017-04-02T03:57:28.901Z,90.00
2017-04-02T03:58:29.431Z,67.50
2017-04-02T03:59:29.962Z,135.00
2017-04-02T04:00:30.506Z,157.50
2017-04-02T04:01:31.026Z,157.50
2017-04-02T04:02:31.567Z,112.50
2017-04-02T04:03:32.094Z,22.50
2017-04-02T04:04:32.624Z,112.50
2017-04-02T04:05:33.302Z,135.00
2017-04-02T04:06:33.684Z,157.50
2017-04-02T04:07:34.220Z,157.50
2017-04-02T04:08:34.741Z,157.50
2017-04-02T04:09:35.273Z,157.50
2017-04-02T04:10:35.798Z,67.50
2017-04-02T04:11:36.333Z,45.00
2017-04-02T04:12:37.009Z,45.00
2017-04-02T04:13:37.388Z,45.00
2017-04-02T04:14:38.068Z,22.50
2017-04-02T04:15:38.446Z,45.00
2017-04-02T04:16:38.970Z,67.50
2017-04-02T04:17:39.501Z,180.00
2017-04-02T04:18:40.027Z,157.50
2017-04-02T04:19:40.558Z,157.50
2017-04-02T04:20:41.089Z,112.50
2017-04-02T04:21:41.622Z,157.50
2017-04-02T04:22:42.149Z,270.00
2017-04-02T04:23:42.677Z,225.00
2017-04-02T04:24:43.353Z,337.50
2017-04-02T04:25:43.746Z,315.00
2017-04-02T04:26:44.270Z,337.50
2017-04-02T04:27:44.793Z,337.50
2017-04-02T04:28:45.322Z,337.50
2017-04-02T04:29:45.852Z,337.50
2017-04-02T04:30:46.382Z,337.50
2017-04-02T04:31:46.908Z,337.50
2017-04-02T04:32:47.454Z,337.50
2017-04-02T04:33:47.968Z,202.50
2017-04-02T04:34:48.643Z,67.50
2017-04-02T04:35:49.023Z,135.00
2017-04-02T04:36:49.562Z,157.50
2017-04-02T04:37:50.084Z,180.00
2017-04-02T04:38:50.622Z,90.00
2017-04-02T04:39:51.141Z,202.50
2017-04-02T04:40:51.716Z,270.00
2017-04-02T04:41:52.345Z,67.50
2017-04-02T04:42:52.880Z,22.50
2017-04-02T04:43:53.264Z,22.50
2017-04-02T04:44:53.945Z,22.50
2017-04-02T04:45:54.330Z,22.50
2017-04-02T04:46:55.017Z,112.50
2017-04-02T04:47:55.391Z,315.00
2017-04-02T04:48:55.921Z,337.50
2017-04-02T04:49:56.449Z,315.00
2017-04-02T04:50:56.986Z,22.50
2017-04-02T04:51:57.522Z,22.50
2017-04-02T04:52:58.081Z,22.50
2017-04-02T04:53:58.722Z,45.00
2017-04-02T04:54:59.258Z,45.00
2017-04-02T04:55:59.640Z,22.50
2017-04-02T04:57:00.163Z,22.50
2017-04-02T04:58:00.698Z,270.00
2017-04-02T04:59:01.371Z,292.50
2017-04-02T05:00:01.759Z,270.00
2017-04-02T05:01:02.291Z,225.00
2017-04-02T05:02:02.815Z,225.00
2017-04-02T05:03:03.342Z,292.50
2017-04-02T05:04:03.870Z,315.00
2017-04-02T05:05:04.397Z,315.00
2017-04-02T05:06:04.933Z,337.50
2017-04-02T05:07:05.471Z,180.00
2017-04-02T05:08:05.991Z,22.50
2017-04-02T05:09:06.517Z,22.50
2017-04-02T05:10:07.049Z,22.50
2017-04-02T05:11:07.578Z,45.00
2017-04-02T05:12:08.108Z,67.50
2017-04-02T05:13:08.645Z,112.50
2017-04-02T05:14:09.166Z,112.50
2017-04-02T05:15:09.698Z,22.50
2017-04-02T05:16:10.225Z,22.50
2017-04-02T05:17:10.751Z,22.50
2017-04-02T05:18:11.282Z,202.50
2017-04-02T05:19:11.959Z,225.00
2017-04-02T05:20:12.334Z,67.50
2017-04-02T05:21:13.015Z,22.50
2017-04-02T05:22:13.398Z,112.50
2017-04-02T05:23:14.078Z,90.00
2017-04-02T05:24:14.490Z,292.50
2017-04-02T05:25:15.150Z,337.50
2017-04-02T05:26:15.546Z,337.50
2017-04-02T05:27:16.211Z,337.50
2017-04-02T05:28:16.590Z,337.50
2017-04-02T05:29:17.128Z,337.50
2017-04-02T05:30:17.654Z,315.00
2017-04-02T05:31:18.178Z,337.50
2017-04-02T05:32:18.711Z,315.00
2017-04-02T05:33:19.389Z,337.50
2017-04-02T05:34:19.765Z,337.50
2017-04-02T05:35:20.447Z,315.00
2017-04-02T05:36:20.826Z,315.00
2017-04-02T05:37:21.504Z,315.00
2017-04-02T05:38:21.883Z,315.00
2017-04-02T05:39:22.418Z,315.00
2017-04-02T05:40:22.941Z,315.00
2017-04-02T05:41:23.472Z,315.00
2017-04-02T05:42:24.000Z,292.50
2017-04-02T05:43:24.527Z,292.50
2017-04-02T05:44:25.061Z,292.50
2017-04-02T05:45:25.584Z,270.00
2017-04-02T05:46:26.116Z,225.00
2017-04-02T05:47:26.646Z,90.00
2017-04-02T05:48:27.178Z,157.50
2017-04-02T05:49:27.702Z,180.00
2017-04-02T05:50:28.238Z,202.50
2017-04-02T05:51:28.770Z,202.50
2017-04-02T05:52:29.292Z,270.00
2017-04-02T05:53:29.837Z,337.50
2017-04-02T05:54:30.353Z,247.50
2017-04-02T05:55:30.883Z,247.50
2017-04-02T05:56:31.414Z,337.50
2017-04-02T05:57:31.943Z,337.50
2017-04-02T05:58:32.475Z,315.00
2017-04-02T05:59:33.008Z,225.00
2017-04-02T06:00:33.534Z,135.00
2017-04-02T06:01:34.076Z,337.50
2017-04-02T06:02:34.591Z,315.00
2017-04-02T06:03:35.275Z,292.50
2017-04-02T06:04:35.656Z,315.00
2017-04-02T06:05:36.216Z,292.50
2017-04-02T06:06:36.728Z,315.00
2017-04-02T06:07:37.254Z,315.00
2017-04-02T06:08:37.786Z,292.50
2017-04-02T06:09:38.328Z,315.00
2017-04-02T06:10:38.841Z,292.50
2017-04-02T06:11:39.524Z,292.50
2017-04-02T06:12:39.900Z,292.50
2017-04-02T06:13:40.428Z,315.00
2017-04-02T06:14:40.956Z,315.00
2017-04-02T06:15:41.487Z,292.50
2017-04-02T06:16:42.009Z,292.50
2017-04-02T06:17:42.538Z,292.50
2017-04-02T06:18:43.070Z,270.00
2017-04-02T06:19:43.749Z,270.00
2017-04-02T06:20:44.124Z,292.50
2017-04-02T06:21:44.809Z,270.00
2017-04-02T06:22:45.186Z,270.00
2017-04-02T06:23:45.721Z,292.50
2017-04-02T06:24:46.270Z,292.50
2017-04-02T06:25:46.783Z,292.50
2017-04-02T06:26:47.309Z,292.50
2017-04-02T06:27:47.834Z,292.50
2017-04-02T06:28:48.362Z,292.50
2017-04-02T06:29:49.044Z,270.00
2017-04-02T06:30:49.424Z,292.50
2017-04-02T06:31:49.955Z,292.50
2017-04-02T06:32:50.478Z,270.00
2017-04-02T06:33:51.006Z,270.00
2017-04-02T06:34:51.536Z,292.50
2017-04-02T06:35:52.212Z,292.50
2017-04-02T06:36:52.589Z,292.50
2017-04-02T06:37:53.119Z,292.50
2017-04-02T06:38:53.648Z,292.50
2017-04-02T06:39:54.330Z,292.50
2017-04-02T06:40:54.706Z,292.50
2017-04-02T06:41:55.232Z,292.50
2017-04-02T06:42:55.770Z,292.50
2017-04-02T06:43:56.450Z,315.00
2017-04-02T06:44:56.830Z,315.00
2017-04-02T06:45:57.517Z,270.00
2017-04-02T06:46:57.905Z,292.50
2017-04-02T06:47:58.586Z,292.50
2017-04-02T06:48:58.965Z,270.00
2017-04-02T06:49:59.494Z,292.50
2017-04-02T06:51:00.329Z,292.50
2017-04-02T06:52:00.555Z,315.00
2017-04-02T06:53:01.085Z,315.00
2017-04-02T06:54:01.623Z,292.50
2017-04-02T06:55:02.148Z,292.50
2017-04-02T06:56:02.682Z,292.50
2017-04-02T06:57:03.199Z,292.50
2017-04-02T06:58:03.726Z,292.50
2017-04-02T06:59:04.265Z,292.50
2017-04-02T07:00:04.786Z,292.50
2017-04-02T07:01:05.318Z,270.00
2017-04-02T07:02:05.858Z,292.50
2017-04-02T07:03:06.374Z,292.50
2017-04-02T07:04:06.903Z,270.00
2017-04-02T07:05:07.433Z,292.50
2017-04-02T07:06:07.965Z,292.50
2017-04-02T07:07:08.492Z,292.50
2017-04-02T07:08:09.168Z,270.00
2017-04-02T07:09:09.695Z,270.00
2017-04-02T07:10:10.229Z,270.00
2017-04-02T07:11:10.612Z,270.00
2017-04-02T07:12:11.135Z,292.50
2017-04-02T07:13:11.826Z,270.00
2017-04-02T07:14:12.337Z,292.50
2017-04-02T07:15:12.872Z,292.50
2017-04-02T07:16:13.380Z,292.50
2017-04-02T07:17:13.733Z,292.50
2017-04-02T07:18:14.276Z,315.00
2017-04-02T07:19:14.919Z,315.00
2017-04-02T07:20:15.446Z,315.00
2017-04-02T07:21:15.968Z,315.00
2017-04-02T07:22:16.480Z,292.50
2017-04-02T07:23:17.015Z,292.50
2017-04-02T07:24:17.522Z,270.00
2017-04-02T07:25:17.888Z,315.00
2017-04-02T07:26:18.565Z,292.50
2017-04-02T07:27:19.097Z,292.50
2017-04-02T07:28:19.622Z,337.50
2017-04-02T07:29:20.144Z,337.50
2017-04-02T07:30:20.520Z,315.00
2017-04-02T07:31:21.035Z,292.50
2017-04-02T07:32:21.556Z,315.00
2017-04-02T07:33:22.204Z,315.00
2017-04-02T07:34:22.730Z,292.50
2017-04-02T07:35:23.252Z,315.00
2017-04-02T07:36:23.642Z,292.50
2017-04-02T07:37:24.294Z,337.50
2017-04-02T07:38:24.662Z,337.50
2017-04-02T07:39:25.323Z,315.00
2017-04-02T07:40:25.708Z,292.50
2017-04-02T07:41:26.378Z,270.00
2017-04-02T07:42:26.879Z,292.50
2017-04-02T07:43:27.411Z,292.50
2017-04-02T07:44:27.916Z,247.50
2017-04-02T07:45:28.439Z,247.50
2017-04-02T07:46:28.814Z,315.00
2017-04-02T07:47:29.347Z,247.50
2017-04-02T07:48:29.999Z,292.50
2017-04-02T07:49:30.519Z,292.50
2017-04-02T07:50:31.061Z,270.00
2017-04-02T07:51:31.553Z,225.00
2017-04-02T07:52:31.944Z,247.50
2017-04-02T07:53:32.463Z,225.00
2017-04-02T07:54:33.115Z,202.50
2017-04-02T07:55:33.499Z,225.00
2017-04-02T07:56:34.159Z,247.50
2017-04-02T07:57:34.522Z,270.00
2017-04-02T07:58:35.065Z,270.00
2017-04-02T07:59:35.581Z,270.00
2017-04-02T08:00:36.241Z,315.00
2017-04-02T08:01:36.756Z,292.50
2017-04-02T08:02:37.287Z,247.50
2017-04-02T08:03:37.812Z,225.00
2017-04-02T08:04:38.319Z,270.00
2017-04-02T08:05:38.700Z,270.00
2017-04-02T08:06:39.366Z,292.50
2017-04-02T08:07:39.739Z,225.00
2017-04-02T08:08:40.275Z,135.00
2017-04-02T08:09:40.928Z,225.00
2017-04-02T08:10:41.447Z,247.50
2017-04-02T08:11:41.963Z,270.00
2017-04-02T08:12:42.489Z,270.00
2017-04-02T08:13:42.855Z,315.00
2017-04-02T08:14:43.385Z,315.00
2017-04-02T08:15:44.040Z,292.50
2017-04-02T08:16:44.563Z,315.00
2017-04-02T08:17:44.953Z,292.50
2017-04-02T08:18:45.603Z,292.50
2017-04-02T08:19:46.122Z,247.50
2017-04-02T08:20:46.513Z,225.00
2017-04-02T08:21:47.159Z,247.50
2017-04-02T08:22:47.548Z,247.50
2017-04-02T08:23:48.052Z,247.50
2017-04-02T08:24:48.717Z,225.00
2017-04-02T08:25:49.109Z,247.50
2017-04-02T08:26:49.626Z,270.00
2017-04-02T08:27:50.275Z,225.00
2017-04-02T08:28:50.792Z,270.00
2017-04-02T08:29:51.312Z,270.00
2017-04-02T08:30:51.716Z,247.50
2017-04-02T08:31:52.349Z,270.00
2017-04-02T08:32:52.866Z,270.00
2017-04-02T08:33:53.390Z,247.50
2017-04-02T08:34:53.775Z,270.00
2017-04-02T08:35:54.440Z,292.50
2017-04-02T08:36:54.952Z,270.00
2017-04-02T08:37:55.477Z,225.00
2017-04-02T08:38:55.850Z,292.50
2017-04-02T08:39:56.369Z,270.00
2017-04-02T08:40:56.891Z,292.50
2017-04-02T08:41:57.548Z,292.50
2017-04-02T08:42:58.067Z,247.50
2017-04-02T08:43:58.597Z,247.50
2017-04-02T08:58:52.729Z,225.00
2017-04-02T08:59:53.371Z,315.00
2017-04-02T09:00:53.758Z,315.00
2017-04-02T09:01:54.287Z,270.00
2017-04-02T09:02:54.925Z,225.00
2017-04-02T09:03:55.476Z,292.50
2017-04-02T09:04:55.975Z,292.50
2017-04-02T09:05:56.485Z,292.50
2017-04-02T09:06:56.869Z,292.50
2017-04-02T09:07:57.519Z,270.00
2017-04-02T09:08:58.041Z,292.50
2017-04-02T09:09:58.569Z,292.50
2017-04-02T09:10:59.070Z,292.50
2017-04-02T09:11:59.593Z,315.00
2017-04-02T09:13:00.124Z,315.00
2017-04-02T09:14:00.640Z,292.50
2017-04-02T09:15:01.161Z,292.50
2017-04-02T09:16:01.661Z,225.00
2017-04-02T09:17:02.187Z,247.50
2017-04-02T09:18:02.697Z,202.50
2017-04-02T09:19:03.225Z,247.50
2017-04-02T09:20:03.748Z,270.00
2017-04-02T09:21:04.248Z,292.50
2017-04-02T09:22:04.775Z,270.00
2017-04-02T09:23:05.297Z,270.00
2017-04-02T09:24:05.801Z,270.00
2017-04-02T09:25:06.332Z,292.50
2017-04-02T09:26:06.852Z,292.50
2017-04-02T09:27:07.358Z,292.50
2017-04-02T09:28:07.880Z,270.00
2017-04-02T09:29:08.410Z,292.50
2017-04-02T09:30:08.795Z,225.00
2017-04-02T09:31:09.460Z,292.50
2017-04-02T09:32:09.840Z,270.00
2017-04-02T09:33:10.494Z,292.50
2017-04-02T09:34:10.878Z,270.00
2017-04-02T09:35:11.528Z,247.50
2017-04-02T09:36:12.034Z,247.50
2017-04-02T09:37:12.555Z,247.50
2017-04-02T09:38:12.951Z,292.50
2017-04-02T09:39:13.595Z,315.00
2017-04-02T09:40:14.113Z,315.00
2017-04-02T09:41:14.498Z,270.00
2017-04-02T09:42:15.148Z,270.00
2017-04-02T09:43:15.675Z,315.00
2017-04-02T09:44:16.063Z,292.50
2017-04-02T09:45:17.619Z,292.50
2017-04-02T09:46:17.097Z,315.00
2017-04-02T09:47:17.734Z,270.00
2017-04-02T09:48:18.275Z,270.00
2017-04-02T09:49:18.795Z,270.00
2017-04-02T09:50:19.154Z,270.00
2017-04-02T09:51:19.678Z,292.50
2017-04-02T09:52:20.344Z,292.50
2017-04-02T09:53:20.732Z,270.00
2017-04-02T09:54:21.241Z,225.00
2017-04-02T09:55:21.755Z,202.50
2017-04-02T09:56:22.408Z,270.00
2017-04-02T09:57:22.779Z,292.50
2017-04-02T09:58:23.308Z,292.50
2017-04-02T09:59:23.837Z,292.50
2017-04-02T10:00:24.361Z,292.50
2017-04-02T10:02:25.425Z,270.00
2017-04-02T10:03:25.955Z,292.50
2017-04-02T10:04:26.481Z,270.00
2017-04-02T10:05:27.009Z,292.50
2017-04-02T10:06:27.688Z,225.00
2017-04-02T10:07:28.104Z,225.00
2017-04-02T10:08:28.603Z,247.50
2017-04-02T10:09:29.136Z,225.00
2017-04-02T10:10:29.675Z,202.50
2017-04-02T10:11:30.208Z,202.50
2017-04-02T10:12:30.740Z,270.00
2017-04-02T10:13:31.303Z,292.50
2017-04-02T10:14:31.796Z,292.50
2017-04-02T10:15:32.330Z,247.50
2017-04-02T10:16:32.857Z,247.50
2017-04-02T10:17:33.390Z,247.50
2017-04-02T10:18:33.926Z,292.50
2017-04-02T10:19:34.467Z,292.50
2017-04-02T10:20:34.974Z,270.00
2017-04-02T10:21:35.655Z,270.00
2017-04-02T10:22:36.068Z,292.50
2017-04-02T10:23:36.570Z,292.50
2017-04-02T10:24:37.098Z,180.00
2017-04-02T10:25:37.632Z,247.50
2017-04-02T10:26:38.163Z,225.00
2017-04-02T10:27:38.692Z,225.00
2017-04-02T10:28:39.222Z,202.50
2017-04-02T10:29:39.748Z,202.50
2017-04-02T10:30:40.284Z,270.00
2017-04-02T10:31:40.813Z,270.00
2017-04-02T10:32:41.342Z,270.00
2017-04-02T10:33:41.871Z,270.00
2017-04-02T10:34:42.557Z,270.00
2017-04-02T10:35:42.930Z,292.50
2017-04-02T10:36:43.463Z,292.50
2017-04-02T10:37:43.990Z,292.50
2017-04-02T10:38:44.520Z,270.00
2017-04-02T10:39:45.052Z,292.50
2017-04-02T10:40:45.580Z,292.50
2017-04-02T10:41:46.111Z,247.50
2017-04-02T10:42:46.638Z,247.50
2017-04-02T10:43:47.172Z,270.00
2017-04-02T10:44:47.702Z,270.00
2017-04-02T10:45:48.246Z,270.00
2017-04-02T10:46:48.910Z,247.50
2017-04-02T10:47:49.293Z,202.50
2017-04-02T10:48:49.833Z,247.50
2017-04-02T10:49:50.358Z,270.00
2017-04-02T10:50:50.894Z,292.50
2017-04-02T10:51:51.587Z,202.50
2017-04-02T10:52:51.957Z,180.00
2017-04-02T10:53:52.491Z,247.50
2017-04-02T10:54:53.033Z,225.00
2017-04-02T10:55:53.554Z,247.50
2017-04-02T10:56:54.083Z,292.50
2017-04-02T10:57:54.614Z,315.00
2017-04-02T10:58:55.147Z,292.50
2017-04-02T10:59:55.675Z,292.50
2017-04-02T11:00:56.210Z,270.00
2017-04-02T11:01:56.731Z,292.50
2017-04-02T11:02:57.259Z,292.50
2017-04-02T11:03:57.788Z,270.00
2017-04-02T11:04:58.317Z,270.00
2017-04-02T11:05:58.846Z,292.50
2017-04-02T11:06:59.408Z,292.50
2017-04-02T11:07:59.907Z,247.50
2017-04-02T11:09:00.435Z,247.50
2017-04-02T11:10:00.966Z,247.50
2017-04-02T11:11:01.502Z,270.00
2017-04-02T11:12:02.032Z,270.00
2017-04-02T11:13:02.556Z,270.00
2017-04-02T11:14:03.085Z,270.00
2017-04-02T11:15:03.607Z,292.50
2017-04-02T11:16:04.145Z,292.50
2017-04-02T11:17:04.671Z,270.00
2017-04-02T11:18:05.202Z,270.00
2017-04-02T11:19:05.757Z,202.50
2017-04-02T11:20:06.263Z,180.00
2017-04-02T11:21:06.791Z,270.00
2017-04-02T11:22:07.318Z,292.50
2017-04-02T11:23:07.847Z,247.50
2017-04-02T11:24:08.379Z,225.00
2017-04-02T11:25:08.904Z,225.00
2017-04-02T11:26:09.435Z,202.50
2017-04-02T11:27:10.137Z,202.50
2017-04-02T11:28:10.494Z,247.50
2017-04-02T11:29:11.022Z,247.50
2017-04-02T11:30:11.552Z,180.00
2017-04-02T11:31:12.247Z,225.00
2017-04-02T11:32:12.619Z,292.50
2017-04-02T11:33:13.156Z,292.50
2017-04-02T11:34:13.687Z,292.50
2017-04-02T11:35:14.214Z,292.50
2017-04-02T11:36:14.744Z,292.50
2017-04-02T11:37:15.274Z,292.50
2017-04-02T11:38:15.809Z,270.00
2017-04-02T11:39:16.367Z,270.00
2017-04-02T11:40:16.871Z,292.50
2017-04-02T11:41:17.549Z,292.50
2017-04-02T11:42:17.928Z,270.00
2017-04-02T11:43:18.456Z,247.50
2017-04-02T11:44:18.990Z,247.50
2017-04-02T11:45:19.518Z,225.00
2017-04-02T11:46:20.048Z,225.00
2017-04-02T11:47:20.727Z,270.00
2017-04-02T11:48:21.109Z,270.00
2017-04-02T11:49:21.636Z,270.00
2017-04-02T11:50:22.168Z,270.00
2017-04-02T11:51:22.699Z,270.00
2017-04-02T11:52:23.228Z,292.50
2017-04-02T11:53:23.757Z,270.00
2017-04-02T11:54:24.292Z,292.50
2017-04-02T11:55:24.814Z,292.50
2017-04-02T11:56:25.346Z,292.50
2017-04-02T11:57:25.873Z,292.50
2017-04-02T11:58:26.404Z,315.00
2017-04-02T11:59:26.931Z,270.00
2017-04-02T12:00:27.461Z,292.50
2017-04-02T12:01:28.142Z,292.50
2017-04-02T12:02:28.523Z,292.50
2017-04-02T12:03:29.048Z,270.00
2017-04-02T12:04:29.584Z,292.50
2017-04-02T12:05:30.113Z,292.50
2017-04-02T12:06:30.791Z,292.50
2017-04-02T12:07:31.173Z,292.50
2017-04-02T12:08:31.703Z,270.00
2017-04-02T12:09:32.233Z,292.50
2017-04-02T12:10:32.766Z,292.50
2017-04-02T12:11:33.294Z,292.50
2017-04-02T12:12:33.831Z,292.50
2017-04-02T12:13:34.509Z,270.00
2017-04-02T12:14:35.038Z,247.50
2017-04-02T12:15:35.423Z,247.50
2017-04-02T12:16:35.953Z,247.50
2017-04-02T12:17:36.482Z,292.50
2017-04-02T12:18:37.010Z,315.00
2017-04-02T12:19:37.532Z,315.00
2017-04-02T12:20:38.067Z,292.50
2017-04-02T12:21:38.744Z,315.00
2017-04-02T12:22:39.122Z,315.00
2017-04-02T12:23:39.670Z,270.00
2017-04-02T12:24:40.187Z,270.00
2017-04-02T12:25:40.713Z,292.50
2017-04-02T12:26:41.243Z,292.50
2017-04-02T12:27:41.926Z,292.50
2017-04-02T12:28:42.302Z,292.50
2017-04-02T12:29:42.865Z,292.50
2017-04-02T12:30:43.361Z,292.50
2017-04-02T12:31:43.892Z,225.00
2017-04-02T12:32:44.418Z,270.00
2017-04-02T12:33:44.948Z,292.50
2017-04-02T12:34:45.482Z,247.50
2017-04-02T12:35:46.009Z,270.00
2017-04-02T12:36:46.541Z,270.00
2017-04-02T12:37:47.075Z,247.50
2017-04-02T12:38:47.600Z,247.50
2017-04-02T12:39:48.126Z,247.50
2017-04-02T12:40:48.660Z,270.00
2017-04-02T12:41:49.187Z,270.00
2017-04-02T12:42:49.717Z,247.50
2017-04-02T12:43:50.246Z,247.50
2017-04-02T12:44:50.775Z,270.00
2017-04-02T12:45:51.455Z,270.00
2017-04-02T12:46:51.830Z,292.50
2017-04-02T12:47:52.355Z,292.50
2017-04-02T12:48:52.892Z,292.50
2017-04-02T12:49:53.419Z,292.50
2017-04-02T12:50:54.104Z,292.50
2017-04-02T12:51:54.485Z,292.50
2017-04-02T12:52:55.021Z,292.50
2017-04-02T12:53:55.887Z,270.00
2017-04-02T12:54:56.087Z,270.00
2017-04-02T12:55:56.617Z,292.50